createdAt,value
2022-09-05T00:02:50.943Z,97747.81
2022-09-05T00:06:02.427Z,97767.91
2022-09-05T00:09:00.772Z,97767.50
2022-09-05T00:12:04.983Z,97771.25
2022-09-05T00:15:14.517Z,97780.84
2022-09-05T00:24:22.750Z,97788.78
2022-09-05T00:24:30.777Z,97794.44
2022-09-05T00:25:31.709Z,97795.94
2022-09-05T00:28:34.215Z,97803.53
2022-09-05T00:31:54.175Z,97806.53
2022-09-05T00:34:48.130Z,97812.28
2022-09-05T00:37:48.304Z,97819.09
2022-09-05T00:40:37.156Z,97823.34
2022-09-05T00:43:30.103Z,97828.88
2022-09-05T00:46:22.841Z,97835.50
2022-09-05T00:49:41.012Z,97849.44
2022-09-05T00:52:29.040Z,97855.03
2022-09-05T00:55:46.017Z,97856.44
2022-09-05T00:58:54.024Z,97863.78
2022-09-05T01:02:26.051Z,97866.84
2022-09-05T01:05:53.016Z,97877.38
2022-09-05T01:08:50.684Z,97872.38
2022-09-05T01:11:45.130Z,97883.22
2022-09-05T01:14:33.752Z,97885.66
2022-09-05T01:17:48.407Z,97892.03
2022-09-05T01:20:54.019Z,97895.38
2022-09-05T01:24:29.750Z,97902.44
2022-09-05T01:29:13.273Z,97905.03
2022-09-05T01:30:54.872Z,97915.56
2022-09-05T01:33:49.186Z,97916.97
2022-09-05T01:36:44.844Z,97916.09
2022-09-05T01:40:12.374Z,97912.94
2022-09-05T01:42:42.143Z,97921.44
2022-09-05T01:45:50.642Z,97924.53
2022-09-05T01:48:33.487Z,97924.38
2022-09-05T01:51:33.872Z,97927.69
2022-09-05T01:54:50.400Z,97926.09
2022-09-05T01:58:03.787Z,97921.69
2022-09-05T02:01:25.465Z,97934.19
2022-09-05T02:04:34.871Z,97923.78
2022-09-05T02:07:31.145Z,97931.44
2022-09-05T02:10:26.763Z,97939.16
2022-09-05T02:14:12.855Z,97941.53
2022-09-05T02:17:51.546Z,97946.91
2022-09-05T02:20:52.070Z,97953.63
2022-09-05T02:23:45.722Z,97961.84
2022-09-05T02:26:41.866Z,97966.75
2022-09-05T02:29:36.387Z,97973.41
2022-09-05T02:33:00.004Z,97981.81
2022-09-05T02:36:11.160Z,97981.28
2022-09-05T02:45:00.456Z,97991.75
2022-09-05T02:45:09.523Z,97988.06
2022-09-05T02:46:34.936Z,97988.00
2022-09-05T02:52:27.610Z,97986.13
2022-09-05T02:57:29.587Z,97993.13
2022-09-05T02:57:38.791Z,97996.78
2022-09-05T03:00:13.310Z,98004.75
2022-09-05T03:03:19.880Z,98008.19
2022-09-05T03:06:46.712Z,98016.97
2022-09-05T03:10:02.853Z,98022.44
2022-09-05T03:13:14.852Z,98024.72
2022-09-05T03:16:40.519Z,98033.78
2022-09-05T03:19:56.090Z,98040.47
2022-09-05T03:23:02.317Z,98047.69
2022-09-05T03:26:24.103Z,98059.63
2022-09-05T03:29:24.144Z,98064.75
2022-09-05T03:32:53.076Z,98084.09
2022-09-05T03:36:19.120Z,98081.88
2022-09-05T03:39:19.836Z,98082.19
2022-09-05T03:42:36.979Z,98100.00
2022-09-05T03:46:16.127Z,98097.31
2022-09-05T03:51:05.036Z,98116.56
2022-09-05T03:57:08.399Z,98116.13
2022-09-05T03:57:25.812Z,98118.88
2022-09-05T03:59:59.856Z,98124.13
2022-09-05T04:08:10.246Z,98127.34
2022-09-05T04:08:20.442Z,98120.50
2022-09-05T04:09:50.035Z,98127.41
2022-09-05T04:12:42.850Z,98129.34
2022-09-05T04:15:34.155Z,98133.00
2022-09-05T04:18:33.085Z,98133.44
2022-09-05T04:21:52.116Z,98138.00
2022-09-05T04:24:53.111Z,98143.50
2022-09-05T04:27:47.522Z,98147.09
2022-09-05T04:30:52.085Z,98153.81
2022-09-05T04:33:46.389Z,98163.69
2022-09-05T04:36:45.853Z,98179.63
2022-09-05T04:39:28.455Z,98180.66
2022-09-05T04:42:29.087Z,98194.47
2022-09-05T04:45:24.486Z,98185.66
2022-09-05T04:48:22.260Z,98200.94
2022-09-05T04:51:13.389Z,98201.53
2022-09-05T04:54:16.851Z,98202.22
2022-09-05T04:57:01.140Z,98205.94
2022-09-05T05:04:23.749Z,98214.72
2022-09-05T05:06:18.351Z,98210.16
2022-09-05T05:06:47.112Z,98218.00
2022-09-05T05:10:25.549Z,98224.81
2022-09-05T05:17:56.337Z,98227.28
2022-09-05T05:18:14.520Z,98228.59
2022-09-05T05:19:47.316Z,98226.84
2022-09-05T05:23:21.751Z,98236.38
2022-09-05T05:26:08.486Z,98222.69
2022-09-05T05:29:31.013Z,98222.06
2022-09-05T05:32:49.002Z,98218.34
2022-09-05T05:35:47.964Z,98205.56
2022-09-05T05:38:44.008Z,98196.81
2022-09-05T05:41:41.033Z,98197.59
2022-09-05T05:44:45.093Z,98185.25
2022-09-05T05:47:34.393Z,98184.06
2022-09-05T05:50:28.853Z,98169.06
2022-09-05T05:53:43.532Z,98154.88
2022-09-05T05:56:28.987Z,98158.06
2022-09-05T05:59:27.021Z,98149.06
2022-09-05T06:02:47.234Z,98156.16
2022-09-05T06:06:43.105Z,98159.13
2022-09-05T06:14:52.832Z,98154.44
2022-09-05T06:15:01.325Z,98147.69
2022-09-05T06:17:09.004Z,98166.88
2022-09-05T06:22:08.551Z,98156.97
2022-09-05T06:23:45.096Z,98149.47
2022-09-05T06:26:36.413Z,98143.81
2022-09-05T06:29:46.969Z,98138.06
2022-09-05T06:32:39.035Z,98131.00
2022-09-05T06:35:37.139Z,98130.06
2022-09-05T06:38:24.927Z,98133.31
2022-09-05T06:41:25.141Z,98124.97
2022-09-05T06:44:38.365Z,98125.34
2022-09-05T06:47:34.201Z,98109.41
2022-09-05T06:50:53.231Z,98108.72
2022-09-05T06:53:53.023Z,98096.19
2022-09-05T06:56:55.384Z,98089.28
2022-09-05T07:00:21.916Z,98081.13
2022-09-05T07:03:36.331Z,98079.44
2022-09-05T07:07:01.984Z,98077.53
2022-09-05T07:09:54.140Z,98069.91
2022-09-05T07:12:52.010Z,98069.41
2022-09-05T07:15:44.785Z,98070.50
2022-09-05T07:19:02.628Z,98063.28
2022-09-05T07:22:29.538Z,98054.31
2022-09-05T07:25:30.329Z,98056.91
2022-09-05T07:28:28.704Z,98055.19
2022-09-05T07:31:37.605Z,98053.31
2022-09-05T07:34:33.993Z,98042.28
2022-09-05T07:37:23.207Z,98028.53
2022-09-05T07:40:26.007Z,98032.03
2022-09-05T07:43:12.903Z,98020.00
2022-09-05T07:46:31.000Z,98017.69
2022-09-05T07:49:17.190Z,98007.72
2022-09-05T07:56:50.435Z,98000.06
2022-09-05T07:57:06.273Z,97990.56
2022-09-05T07:58:58.795Z,97984.91
2022-09-05T08:01:41.275Z,97992.00
2022-09-05T08:04:42.185Z,97982.03
2022-09-05T08:07:48.971Z,97987.69
2022-09-05T08:11:22.394Z,97986.59
2022-09-05T08:13:48.232Z,97978.38
2022-09-05T08:16:36.924Z,97963.72
2022-09-05T08:19:40.107Z,97960.41
2022-09-05T08:22:31.799Z,97955.94
2022-09-05T08:25:34.991Z,97957.00
2022-09-05T08:28:58.881Z,97966.13
2022-09-05T08:32:03.753Z,97974.25
2022-09-05T08:35:13.866Z,97987.78
2022-09-05T08:38:05.906Z,97984.41
2022-09-05T08:41:42.973Z,97985.81
2022-09-05T08:46:42.012Z,97979.28
2022-09-05T08:48:14.921Z,97985.31
2022-09-05T08:51:12.189Z,97983.47
2022-09-05T08:54:33.886Z,97967.34
2022-09-05T08:58:00.013Z,97960.25
2022-09-05T09:01:04.521Z,97958.72
2022-09-05T09:04:04.493Z,97951.59
2022-09-05T09:07:43.696Z,97936.88
2022-09-05T09:10:43.403Z,97923.41
2022-09-05T09:13:52.104Z,97917.72
2022-09-05T09:16:40.005Z,97917.00
2022-09-05T09:20:00.143Z,97912.31
2022-09-05T09:22:56.348Z,97922.06
2022-09-05T09:25:52.844Z,97927.47
2022-09-05T09:28:51.452Z,97926.31
2022-09-05T09:32:04.749Z,97935.06
2022-09-05T09:34:56.293Z,97938.63
2022-09-05T09:38:00.107Z,97937.03
2022-09-05T09:41:42.920Z,97940.59
2022-09-05T09:44:59.750Z,97934.44
2022-09-05T09:48:14.879Z,97935.31
2022-09-05T09:51:23.877Z,97939.41
2022-09-05T09:54:42.177Z,97931.00
2022-09-05T09:57:56.038Z,97925.78
2022-09-05T10:01:35.367Z,97921.94
2022-09-05T10:10:34.484Z,97925.56
2022-09-05T10:11:22.735Z,97947.00
2022-09-05T10:11:54.670Z,97953.19
2022-09-05T10:14:53.405Z,97958.13
2022-09-05T10:17:46.746Z,97964.53
2022-09-05T10:20:50.968Z,97978.03
2022-09-05T10:24:00.066Z,97975.50
2022-09-05T10:27:13.155Z,97976.38
2022-09-05T10:31:17.439Z,97982.38
2022-09-05T10:35:09.288Z,97985.84
2022-09-05T10:37:06.175Z,97996.16
2022-09-05T10:40:12.856Z,97993.75
2022-09-05T10:43:25.043Z,98000.72
2022-09-05T10:46:50.320Z,98009.75
2022-09-05T10:49:45.884Z,98002.38
2022-09-05T10:53:09.559Z,98009.53
2022-09-05T10:56:19.069Z,98006.91
2022-09-05T11:01:27.626Z,98006.69
2022-09-05T11:02:36.746Z,98013.75
2022-09-05T11:05:41.906Z,98018.22
2022-09-05T11:09:01.850Z,98000.84
2022-09-05T11:12:01.108Z,97986.03
2022-09-05T11:14:58.777Z,98003.28
2022-09-05T11:18:04.647Z,98004.16
2022-09-05T11:21:02.833Z,97986.50
2022-09-05T11:23:56.840Z,98001.22
2022-09-05T11:27:23.474Z,97994.44
2022-09-05T11:30:08.446Z,97989.13
2022-09-05T11:39:36.454Z,97987.66
2022-09-05T11:39:55.602Z,97977.63
2022-09-05T11:40:31.052Z,97974.56
2022-09-05T11:43:13.394Z,97959.09
2022-09-05T11:46:22.877Z,97952.84
2022-09-05T11:49:14.123Z,97959.53
2022-09-05T11:52:23.886Z,97965.44
2022-09-05T11:55:43.130Z,97949.84
2022-09-05T11:58:55.929Z,97973.88
2022-09-05T12:01:44.087Z,97969.38
2022-09-05T12:05:51.165Z,97980.06
2022-09-05T12:08:28.883Z,97985.34
2022-09-05T12:11:44.109Z,97993.22
2022-09-05T12:14:42.419Z,97990.25
2022-09-05T12:17:46.105Z,97993.22
2022-09-05T12:20:46.005Z,97988.25
2022-09-05T12:23:54.039Z,97991.31
2022-09-05T12:27:44.850Z,97985.34
2022-09-05T12:30:55.037Z,97980.88
2022-09-05T12:36:02.662Z,97979.22
2022-09-05T12:40:53.800Z,97969.72
2022-09-05T12:41:36.422Z,97958.28
2022-09-05T12:44:38.220Z,97960.38
2022-09-05T12:47:16.999Z,97943.38
2022-09-05T12:50:14.059Z,97940.28
2022-09-05T12:53:17.086Z,97936.06
2022-09-05T12:57:17.239Z,97928.78
2022-09-05T13:02:55.314Z,97934.72
2022-09-05T13:03:01.533Z,97927.88
2022-09-05T13:05:30.998Z,97911.44
2022-09-05T13:08:29.012Z,97907.47
2022-09-05T13:14:48.530Z,97907.53
2022-09-05T13:14:58.076Z,97911.84
2022-09-05T13:17:46.156Z,97924.06
2022-09-05T13:20:47.186Z,97921.94
2022-09-05T13:23:34.415Z,97915.91
2022-09-05T13:26:32.076Z,97922.06
2022-09-05T13:29:39.906Z,97913.50
2022-09-05T13:37:59.202Z,97912.03
2022-09-05T13:38:13.078Z,97918.88
2022-09-05T13:39:20.054Z,97901.25
2022-09-05T13:42:11.378Z,97905.09
2022-09-05T13:45:03.803Z,97903.56
2022-09-05T13:47:58.050Z,97915.94
2022-09-05T13:50:56.078Z,97910.13
2022-09-05T13:53:44.838Z,97914.63
2022-09-05T13:56:40.381Z,97915.66
2022-09-05T13:59:24.082Z,97915.44
2022-09-05T14:02:28.304Z,97918.00
2022-09-05T14:05:44.910Z,97917.22
2022-09-05T14:12:23.737Z,97922.06
2022-09-05T14:15:36.808Z,97921.13
2022-09-05T14:19:03.315Z,97922.75
2022-09-05T14:21:47.005Z,97926.50
2022-09-05T14:24:39.996Z,97925.97
2022-09-05T14:27:30.351Z,97930.03
2022-09-05T14:31:26.531Z,97922.66
2022-09-05T14:37:44.745Z,97937.88
2022-09-05T14:37:53.461Z,97927.09
2022-09-05T14:40:29.807Z,97943.22
2022-09-05T14:43:26.934Z,97941.09
2022-09-05T14:46:34.169Z,97957.41
2022-09-05T14:49:35.790Z,97965.47
2022-09-05T14:52:43.701Z,97967.59
2022-09-05T14:55:30.466Z,97974.22
2022-09-05T15:02:41.334Z,97970.97
2022-09-05T15:02:44.503Z,97966.06
2022-09-05T15:04:33.370Z,97978.84
2022-09-05T15:07:35.545Z,97977.13
2022-09-05T15:12:16.061Z,97990.44
2022-09-05T15:14:14.155Z,97979.81
2022-09-05T15:17:04.804Z,97986.09
2022-09-05T15:20:07.575Z,97992.50
2022-09-05T15:23:09.864Z,97989.22
2022-09-05T15:26:39.093Z,97986.00
2022-09-05T15:29:36.129Z,97978.59
2022-09-05T15:32:35.043Z,97986.19
2022-09-05T15:35:35.123Z,97985.84
2022-09-05T15:38:54.936Z,98001.09
2022-09-05T15:41:43.101Z,98001.22
2022-09-05T15:45:09.083Z,98009.19
2022-09-05T15:48:34.113Z,97995.25
2022-09-05T15:51:34.304Z,97988.28
2022-09-05T15:54:58.883Z,97988.94
2022-09-05T15:57:52.038Z,97986.91
2022-09-05T16:00:51.823Z,97976.22
2022-09-05T16:07:15.067Z,97983.66
2022-09-05T16:10:38.255Z,97991.78
2022-09-05T16:10:40.129Z,97987.91
2022-09-05T16:13:16.663Z,97988.56
2022-09-05T16:21:35.649Z,97980.78
2022-09-05T16:23:25.119Z,97976.13
2022-09-05T16:23:30.449Z,97981.78
2022-09-05T16:26:07.467Z,97979.06
2022-09-05T16:29:36.222Z,97987.03
2022-09-05T16:32:37.635Z,97989.44
2022-09-05T16:35:35.197Z,97992.22
2022-09-05T16:38:49.763Z,97982.06
2022-09-05T16:41:53.416Z,97981.06
2022-09-05T16:45:09.643Z,97991.94
2022-09-05T16:47:59.279Z,97986.31
2022-09-05T16:51:18.331Z,97989.94
2022-09-05T16:54:48.244Z,97988.81
2022-09-05T16:57:46.049Z,97987.66
2022-09-05T17:00:39.215Z,97992.22
2022-09-05T17:03:50.546Z,97996.53
2022-09-05T17:06:45.802Z,97991.16
2022-09-05T17:09:48.650Z,97996.28
2022-09-05T17:12:40.040Z,97988.09
2022-09-05T17:15:51.918Z,97989.63
2022-09-05T17:18:48.726Z,97988.53
2022-09-05T17:24:38.688Z,97993.00
2022-09-05T17:29:24.827Z,98001.06
2022-09-05T17:29:32.173Z,97985.22
2022-09-05T17:32:28.933Z,97996.84
2022-09-05T17:35:50.188Z,97995.84
2022-09-05T17:38:57.163Z,97997.44
2022-09-05T17:41:44.518Z,97994.53
2022-09-05T17:44:43.444Z,97984.47
2022-09-05T17:47:35.529Z,97983.66
2022-09-05T17:50:35.300Z,97984.91
2022-09-05T17:53:28.954Z,97995.97
2022-09-05T17:56:21.008Z,97993.50
2022-09-05T17:59:10.783Z,98001.81
2022-09-05T18:02:15.202Z,97999.06
2022-09-05T18:05:11.251Z,98002.44
2022-09-05T18:07:57.765Z,98004.59
2022-09-05T18:11:25.281Z,98010.91
2022-09-05T18:14:25.070Z,98023.81
2022-09-05T18:18:04.148Z,98018.28
2022-09-05T18:20:52.033Z,98023.81
2022-09-05T18:24:07.961Z,98021.13
2022-09-05T18:30:25.114Z,98026.31
2022-09-05T18:33:55.515Z,98028.03
2022-09-05T18:36:34.225Z,98019.91
2022-09-05T18:39:46.209Z,98022.22
2022-09-05T18:42:38.164Z,98018.63
2022-09-05T18:45:34.147Z,98007.63
2022-09-05T18:48:31.378Z,98014.78
2022-09-05T18:51:25.169Z,98021.03
2022-09-05T18:54:20.305Z,98004.88
2022-09-05T18:57:26.409Z,98011.19
2022-09-05T19:00:15.150Z,98010.84
2022-09-05T19:03:17.143Z,98021.91
2022-09-05T19:06:35.751Z,98007.34
2022-09-05T19:09:26.678Z,98014.44
2022-09-05T19:12:32.137Z,98012.47
2022-09-05T19:15:34.087Z,98012.03
2022-09-05T19:18:35.186Z,98001.66
2022-09-05T19:21:33.162Z,98003.91
2022-09-05T19:24:30.368Z,98004.34
2022-09-05T19:29:01.338Z,98010.25
2022-09-05T19:36:47.436Z,98004.28
2022-09-05T19:37:10.872Z,98005.47
2022-09-05T19:37:28.865Z,98002.63
2022-09-05T19:43:53.999Z,97997.06
2022-09-05T19:47:48.901Z,98003.25
2022-09-05T19:47:55.699Z,98017.59
2022-09-05T19:49:42.464Z,98014.31
2022-09-05T19:52:35.212Z,98009.69
2022-09-05T19:55:41.067Z,98009.22
2022-09-05T19:58:25.807Z,98003.69
2022-09-05T20:01:31.223Z,98000.28
2022-09-05T20:04:17.644Z,98008.06
2022-09-05T20:07:06.132Z,98008.44
2022-09-05T20:10:06.099Z,98010.75
2022-09-05T20:12:54.496Z,98013.00
2022-09-05T20:15:52.143Z,97998.25
2022-09-05T20:19:00.630Z,98003.72
2022-09-05T20:21:48.934Z,97996.53
2022-09-05T20:24:32.967Z,97991.69
2022-09-05T20:27:26.949Z,97992.13
2022-09-05T20:30:12.957Z,97993.41
2022-09-05T20:33:08.101Z,97987.03
2022-09-05T20:39:56.204Z,97987.63
2022-09-05T20:43:17.274Z,97989.84
2022-09-05T20:43:36.698Z,97985.91
2022-09-05T20:47:36.548Z,97985.47
2022-09-05T20:54:20.151Z,97984.50
2022-09-05T20:54:21.142Z,97978.63
2022-09-05T20:55:40.010Z,97975.84
2022-09-05T20:58:32.886Z,97990.47
2022-09-05T21:01:25.126Z,97984.06
2022-09-05T21:04:14.866Z,97981.59
2022-09-05T21:07:30.030Z,97985.97
2022-09-05T21:10:33.321Z,97980.50
2022-09-05T21:13:51.971Z,97982.31
2022-09-05T21:16:56.953Z,97992.66
2022-09-05T21:19:39.432Z,97988.63
2022-09-05T21:22:31.984Z,97985.34
2022-09-05T21:25:14.208Z,97985.34
2022-09-05T21:28:15.012Z,97988.94
2022-09-05T21:30:59.972Z,97990.00
2022-09-05T21:33:58.572Z,97988.84
2022-09-05T21:36:50.568Z,97983.31
2022-09-05T21:40:00.514Z,97980.00
2022-09-05T21:46:04.582Z,97982.88
2022-09-05T21:47:40.993Z,97983.59
2022-09-05T21:48:56.708Z,97982.78
2022-09-05T21:51:48.256Z,97983.13
2022-09-05T21:59:24.481Z,97984.25
2022-09-05T21:59:30.627Z,97979.69
2022-09-05T22:00:55.016Z,97987.22
2022-09-05T22:03:37.427Z,97998.66
2022-09-05T22:06:26.129Z,97985.34
2022-09-05T22:09:12.959Z,97989.38
2022-09-05T22:12:06.079Z,97984.56
2022-09-05T22:15:29.233Z,97987.31
2022-09-05T22:18:18.267Z,97985.72
2022-09-05T22:21:32.490Z,97984.91
2022-09-05T22:24:09.461Z,97982.97
2022-09-05T22:27:12.690Z,97982.97
2022-09-05T22:30:05.114Z,97986.53
2022-09-05T22:32:48.446Z,97987.94
2022-09-05T22:35:37.042Z,97991.06
2022-09-05T22:38:29.124Z,97988.63
2022-09-05T22:41:30.071Z,97986.22
2022-09-05T22:44:15.785Z,97990.16
2022-09-05T22:46:58.437Z,97985.78
2022-09-05T22:49:47.044Z,97986.63
2022-09-05T22:52:29.342Z,97980.69
2022-09-05T22:55:18.023Z,97990.88
2022-09-05T22:58:00.378Z,97995.63
2022-09-05T23:00:49.137Z,97984.91
2022-09-05T23:03:38.412Z,97991.06
2022-09-05T23:06:21.048Z,97988.94
2022-09-05T23:09:04.725Z,97995.72
2022-09-05T23:11:54.029Z,97988.56
2022-09-05T23:14:36.373Z,97992.50
2022-09-05T23:17:32.019Z,97993.28
2022-09-05T23:20:15.520Z,97992.50
2022-09-05T23:23:05.161Z,97993.28
2022-09-05T23:25:53.412Z,97998.75
2022-09-05T23:28:39.455Z,98005.81
2022-09-05T23:31:24.457Z,98001.06
2022-09-05T23:34:13.096Z,98005.00
2022-09-05T23:37:02.557Z,98000.19
2022-09-05T23:39:44.187Z,98006.38
2022-09-05T23:42:32.420Z,98009.53
2022-09-05T23:45:16.094Z,98013.44
2022-09-05T23:48:06.715Z,98015.84
2022-09-05T23:50:50.139Z,98013.09
2022-09-05T23:53:38.398Z,98020.94
2022-09-05T23:56:21.037Z,98019.97
2022-09-05T23:59:17.129Z,98023.53
